sensor_id;sensor_type;location;lat;lon;timestamp;pressure;altitude;pressure_sealevel;temperature;humidity
7670;BME280;3877;42.562;27.636;2023-08-24T00:02:09;101538.28;;;25.69;100.00
7670;BME280;3877;42.562;27.636;2023-08-24T00:04:38;101535.81;;;25.64;100.00
7670;BME280;3877;42.562;27.636;2023-08-24T00:07:05;101536.63;;;25.68;100.00
7670;BME280;3877;42.562;27.636;2023-08-24T00:09:32;101539.94;;;25.74;100.00
7670;BME280;3877;42.562;27.636;2023-08-24T00:12:00;101542.38;;;25.68;100.00
7670;BME280;3877;42.562;27.636;2023-08-24T00:14:28;101543.19;;;25.65;100.00
7670;BME280;3877;42.562;27.636;2023-08-24T00:16:55;101538.25;;;25.62;100.00
7670;BME280;3877;42.562;27.636;2023-08-24T00:19:24;101530.88;;;25.61;100.00
7670;BME280;3877;42.562;27.636;2023-08-24T00:21:51;101544.81;;;25.59;100.00
7670;BME280;3877;42.562;27.636;2023-08-24T00:24:19;101534.16;;;25.56;100.00
7670;BME280;3877;42.562;27.636;2023-08-24T00:26:46;101528.44;;;25.56;100.00
7670;BME280;3877;42.562;27.636;2023-08-24T00:29:13;101524.28;;;25.54;100.00
7670;BME280;3877;42.562;27.636;2023-08-24T00:31:41;101524.31;;;25.57;100.00
7670;BME280;3877;42.562;27.636;2023-08-24T00:34:09;101529.25;;;25.60;100.00
7670;BME280;3877;42.562;27.636;2023-08-24T00:36:38;101532.13;;;25.64;100.00
7670;BME280;3877;42.562;27.636;2023-08-24T00:39:05;101543.19;;;25.65;100.00
7670;BME280;3877;42.562;27.636;2023-08-24T00:41:33;101549.75;;;25.69;100.00
7670;BME280;3877;42.562;27.636;2023-08-24T00:44:00;101547.72;;;25.81;100.00
7670;BME280;3877;42.562;27.636;2023-08-24T00:46:27;101548.56;;;25.92;100.00
7670;BME280;3877;42.562;27.636;2023-08-24T00:48:55;101535.03;;;25.96;100.00
7670;BME280;3877;42.562;27.636;2023-08-24T00:51:24;101562.09;;;26.20;100.00
7670;BME280;3877;42.562;27.636;2023-08-24T00:53:53;101567.88;;;26.23;100.00
7670;BME280;3877;42.562;27.636;2023-08-24T00:56:21;101546.09;;;26.15;100.00
7670;BME280;3877;42.562;27.636;2023-08-24T00:58:50;101558.84;;;26.21;100.00
7670;BME280;3877;42.562;27.636;2023-08-24T01:01:18;101567.88;;;26.23;100.00
7670;BME280;3877;42.562;27.636;2023-08-24T01:03:46;101567.06;;;26.23;100.00
7670;BME280;3877;42.562;27.636;2023-08-24T01:06:14;101572.75;;;26.19;100.00
7670;BME280;3877;42.562;27.636;2023-08-24T01:08:41;101564.56;;;26.14;100.00
7670;BME280;3877;42.562;27.636;2023-08-24T01:11:14;101557.56;;;26.04;100.00
7670;BME280;3877;42.562;27.636;2023-08-24T01:13:52;101561.28;;;26.01;100.00
7670;BME280;3877;42.562;27.636;2023-08-24T01:16:26;101555.53;;;25.94;100.00
7670;BME280;3877;42.562;27.636;2023-08-24T01:18:55;101540.31;;;25.73;100.00
7670;BME280;3877;42.562;27.636;2023-08-24T01:21:24;101539.09;;;25.63;100.00
7670;BME280;3877;42.562;27.636;2023-08-24T01:23:59;101538.25;;;25.59;100.00
7670;BME280;3877;42.562;27.636;2023-08-24T01:26:34;101531.66;;;25.51;100.00
7670;BME280;3877;42.562;27.636;2023-08-24T01:29:04;101526.31;;;25.46;100.00
7670;BME280;3877;42.562;27.636;2023-08-24T01:31:32;101531.25;;;25.42;100.00
7670;BME280;3877;42.562;27.636;2023-08-24T01:34:00;101533.69;;;25.40;100.00
7670;BME280;3877;42.562;27.636;2023-08-24T01:36:27;101431.84;;;24.77;100.00
7670;BME280;3877;42.562;27.636;2023-08-24T01:39:02;101532.03;;;25.36;100.00
7670;BME280;3877;42.562;27.636;2023-08-24T01:41:37;101530.38;;;25.27;100.00
7670;BME280;3877;42.562;27.636;2023-08-24T01:44:06;101527.06;;;25.29;100.00
7670;BME280;3877;42.562;27.636;2023-08-24T01:46:34;101530.34;;;25.24;100.00
7670;BME280;3877;42.562;27.636;2023-08-24T01:49:04;101527.06;;;25.22;100.00
7670;BME280;3877;42.562;27.636;2023-08-24T01:51:33;101526.63;;;25.20;100.00
7670;BME280;3877;42.562;27.636;2023-08-24T01:54:01;101529.50;;;25.20;100.00
7670;BME280;3877;42.562;27.636;2023-08-24T01:59:16;101521.34;;;25.22;100.00
7670;BME280;3877;42.562;27.636;2023-08-24T02:01:44;101521.72;;;25.20;100.00
7670;BME280;3877;42.562;27.636;2023-08-24T02:04:11;101514.38;;;25.23;100.00
7670;BME280;3877;42.562;27.636;2023-08-24T02:06:39;101511.06;;;25.17;100.00
7670;BME280;3877;42.562;27.636;2023-08-24T02:09:06;101518.91;;;25.31;100.00
7670;BME280;3877;42.562;27.636;2023-08-24T02:11:34;101509.06;;;25.32;100.00
7670;BME280;3877;42.562;27.636;2023-08-24T02:14:01;101513.59;;;25.37;100.00
7670;BME280;3877;42.562;27.636;2023-08-24T02:16:30;101515.25;;;25.48;100.00
7670;BME280;3877;42.562;27.636;2023-08-24T02:18:57;101505.84;;;25.51;100.00
7670;BME280;3877;42.562;27.636;2023-08-24T02:21:24;101514.47;;;25.58;100.00
7670;BME280;3877;42.562;27.636;2023-08-24T02:23:51;101515.31;;;25.62;100.00
7670;BME280;3877;42.562;27.636;2023-08-24T02:26:18;101513.69;;;25.68;100.00
7670;BME280;3877;42.562;27.636;2023-08-24T02:28:47;101507.13;;;25.64;100.00
7670;BME280;3877;42.562;27.636;2023-08-24T02:31:15;101521.88;;;25.74;100.00
7670;BME280;3877;42.562;27.636;2023-08-24T02:33:44;101529.66;;;25.77;100.00
7670;BME280;3877;42.562;27.636;2023-08-24T02:36:11;101431.59;;;25.18;100.00
7670;BME280;3877;42.562;27.636;2023-08-24T02:38:39;101538.28;;;25.77;100.00
7670;BME280;3877;42.562;27.636;2023-08-24T02:41:07;101533.38;;;25.77;100.00
7670;BME280;3877;42.562;27.636;2023-08-24T02:43:36;101527.59;;;25.66;100.00
7670;BME280;3877;42.562;27.636;2023-08-24T02:46:05;101530.88;;;25.61;100.00
7670;BME280;3877;42.562;27.636;2023-08-24T02:48:33;101434.00;;;24.95;100.00
7670;BME280;3877;42.562;27.636;2023-08-24T02:51:03;101525.06;;;25.47;100.00
7670;BME280;3877;42.562;27.636;2023-08-24T02:53:31;101526.31;;;25.46;100.00
7670;BME280;3877;42.562;27.636;2023-08-24T02:55:58;101520.94;;;25.38;100.00
7670;BME280;3877;42.562;27.636;2023-08-24T02:58:25;101524.25;;;25.36;100.00
7670;BME280;3877;42.562;27.636;2023-08-24T03:00:53;101508.63;;;25.23;100.00
7670;BME280;3877;42.562;27.636;2023-08-24T03:03:21;101530.75;;;25.26;100.00
7670;BME280;3877;42.562;27.636;2023-08-24T03:05:55;101526.63;;;25.20;100.00
7670;BME280;3877;42.562;27.636;2023-08-24T03:08:25;101522.50;;;25.14;100.00
7670;BME280;3877;42.562;27.636;2023-08-24T03:10:52;101524.97;;;25.15;100.00
7670;BME280;3877;42.562;27.636;2023-08-24T03:13:20;101522.50;;;25.14;100.00
7670;BME280;3877;42.562;27.636;2023-08-24T03:15:48;101518.84;;;25.13;100.00
7670;BME280;3877;42.562;27.636;2023-08-24T03:18:16;101507.78;;;25.12;100.00
7670;BME280;3877;42.562;27.636;2023-08-24T03:20:47;101517.19;;;25.09;100.00
7670;BME280;3877;42.562;27.636;2023-08-24T03:23:15;101492.97;;;24.96;100.00
7670;BME280;3877;42.562;27.636;2023-08-24T03:25:44;101512.69;;;25.08;100.00
7670;BME280;3877;42.562;27.636;2023-08-24T03:28:12;101508.97;;;25.04;100.00
7670;BME280;3877;42.562;27.636;2023-08-24T03:30:45;101526.19;;;25.04;100.00
7670;BME280;3877;42.562;27.636;2023-08-24T03:33:13;101524.16;;;25.08;100.00
7670;BME280;3877;42.562;27.636;2023-08-24T03:35:40;101526.59;;;25.06;100.00
7670;BME280;3877;42.562;27.636;2023-08-24T03:38:08;101511.84;;;25.04;100.00
7670;BME280;3877;42.562;27.636;2023-08-24T03:40:35;101530.72;;;25.15;100.00
7670;BME280;3877;42.562;27.636;2023-08-24T03:43:04;101529.94;;;25.22;100.00
7670;BME280;3877;42.562;27.636;2023-08-24T03:45:31;101524.59;;;25.24;100.00
7670;BME280;3877;42.562;27.636;2023-08-24T03:47:58;101543.50;;;25.32;100.00
7670;BME280;3877;42.562;27.636;2023-08-24T03:50:25;101537.38;;;25.37;100.00
7670;BME280;3877;42.562;27.636;2023-08-24T03:52:53;101536.53;;;25.40;100.00
7670;BME280;3877;42.562;27.636;2023-08-24T03:55:21;101518.94;;;25.45;100.00
7670;BME280;3877;42.562;27.636;2023-08-24T03:57:48;101533.28;;;25.52;100.00
7670;BME280;3877;42.562;27.636;2023-08-24T04:00:17;101532.53;;;25.55;100.00
7670;BME280;3877;42.562;27.636;2023-08-24T04:02:44;101530.88;;;25.61;100.00
7670;BME280;3877;42.562;27.636;2023-08-24T04:05:15;101529.25;;;25.67;100.00
7670;BME280;3877;42.562;27.636;2023-08-24T04:07:42;101518.19;;;25.69;100.00
7670;BME280;3877;42.562;27.636;2023-08-24T04:10:10;101523.09;;;25.73;100.00
7670;BME280;3877;42.562;27.636;2023-08-24T04:12:42;101523.97;;;25.80;100.00
7670;BME280;3877;42.562;27.636;2023-08-24T04:15:09;101527.63;;;25.88;100.00
7670;BME280;3877;42.562;27.636;2023-08-24T04:17:39;101526.81;;;25.98;100.00
7670;BME280;3877;42.562;27.636;2023-08-24T04:20:07;101532.97;;;26.07;100.00
7670;BME280;3877;42.562;27.636;2023-08-24T04:22:34;101527.66;;;26.27;100.00
7670;BME280;3877;42.562;27.636;2023-08-24T04:25:02;101526.84;;;26.40;100.00
7670;BME280;3877;42.562;27.636;2023-08-24T04:27:30;101532.59;;;26.37;100.00
7670;BME280;3877;42.562;27.636;2023-08-24T04:29:58;101523.13;;;26.29;100.00
7670;BME280;3877;42.562;27.636;2023-08-24T04:32:27;101529.28;;;26.38;100.00
7670;BME280;3877;42.562;27.636;2023-08-24T04:34:56;101517.81;;;26.31;100.00
7670;BME280;3877;42.562;27.636;2023-08-24T04:37:24;101513.28;;;26.37;100.00
7670;BME280;3877;42.562;27.636;2023-08-24T04:39:51;101519.03;;;26.44;100.00
7670;BME280;3877;42.562;27.636;2023-08-24T04:42:18;101521.06;;;26.47;100.00
7670;BME280;3877;42.562;27.636;2023-08-24T04:44:46;101521.03;;;26.58;100.00
7670;BME280;3877;42.562;27.636;2023-08-24T04:47:13;101529.22;;;26.74;100.00
7670;BME280;3877;42.562;27.636;2023-08-24T04:49:40;101527.56;;;26.87;100.00
7670;BME280;3877;42.562;27.636;2023-08-24T04:52:09;101522.47;;;27.26;100.00
7670;BME280;3877;42.562;27.636;2023-08-24T04:54:36;101519.88;;;27.53;100.00
7670;BME280;3877;42.562;27.636;2023-08-24T04:57:04;101515.50;;;27.86;100.00
7670;BME280;3877;42.562;27.636;2023-08-24T04:59:32;101513.81;;;27.92;100.00
7670;BME280;3877;42.562;27.636;2023-08-24T05:01:59;101507.16;;;28.02;100.00
7670;BME280;3877;42.562;27.636;2023-08-24T05:04:26;101502.66;;;28.46;100.00
7670;BME280;3877;42.562;27.636;2023-08-24T05:06:54;101505.88;;;28.92;100.00
7670;BME280;3877;42.562;27.636;2023-08-24T05:09:23;101500.00;;;29.30;100.00
7670;BME280;3877;42.562;27.636;2023-08-24T05:11:50;101504.50;;;29.61;100.00
7670;BME280;3877;42.562;27.636;2023-08-24T05:14:17;101497.66;;;29.78;100.00
7670;BME280;3877;42.562;27.636;2023-08-24T05:16:45;101492.03;;;30.18;100.00
7670;BME280;3877;42.562;27.636;2023-08-24T05:19:12;101497.69;;;31.11;100.00
7670;BME280;3877;42.562;27.636;2023-08-24T05:21:40;101489.69;;;32.03;100.00
7670;BME280;3877;42.562;27.636;2023-08-24T05:24:07;101496.69;;;32.83;100.00
7670;BME280;3877;42.562;27.636;2023-08-24T05:26:36;101504.84;;;33.17;100.00
7670;BME280;3877;42.562;27.636;2023-08-24T05:29:03;101505.44;;;33.37;100.00
7670;BME280;3877;42.562;27.636;2023-08-24T05:31:30;101493.84;;;33.75;100.00
7670;BME280;3877;42.562;27.636;2023-08-24T05:33:57;101478.72;;;34.05;100.00
7670;BME280;3877;42.562;27.636;2023-08-24T05:36:25;101505.47;;;34.25;100.00
7670;BME280;3877;42.562;27.636;2023-08-24T05:38:52;101514.19;;;34.25;100.00
7670;BME280;3877;42.562;27.636;2023-08-24T05:41:22;101525.34;;;34.14;100.00
7670;BME280;3877;42.562;27.636;2023-08-24T05:43:50;101521.75;;;33.85;100.00
7670;BME280;3877;42.562;27.636;2023-08-24T05:46:18;101520.81;;;33.63;100.00
7670;BME280;3877;42.562;27.636;2023-08-24T05:48:46;101521.88;;;33.69;100.00
7670;BME280;3877;42.562;27.636;2023-08-24T05:51:13;101526.19;;;32.94;100.00
7670;BME280;3877;42.562;27.636;2023-08-24T05:53:41;101523.53;;;32.87;100.00
7670;BME280;3877;42.562;27.636;2023-08-24T05:56:08;101523.81;;;33.05;100.00
7670;BME280;3877;42.562;27.636;2023-08-24T05:58:35;101520.91;;;33.05;100.00
7670;BME280;3877;42.562;27.636;2023-08-24T06:01:04;101523.25;;;33.10;100.00
7670;BME280;3877;42.562;27.636;2023-08-24T06:03:31;101530.28;;;33.25;100.00
7670;BME280;3877;42.562;27.636;2023-08-24T06:06:02;101532.94;;;33.20;100.00
7670;BME280;3877;42.562;27.636;2023-08-24T06:08:30;101538.09;;;33.12;100.00
7670;BME280;3877;42.562;27.636;2023-08-24T06:10:57;101536.50;;;33.11;100.00
7670;BME280;3877;42.562;27.636;2023-08-24T06:13:24;101536.75;;;32.88;100.00
7670;BME280;3877;42.562;27.636;2023-08-24T06:15:53;101541.44;;;32.69;100.00
7670;BME280;3877;42.562;27.636;2023-08-24T06:18:21;101542.97;;;32.58;100.00
7670;BME280;3877;42.562;27.636;2023-08-24T06:20:49;101527.59;;;32.44;100.00
7670;BME280;3877;42.562;27.636;2023-08-24T06:23:18;101545.53;;;32.23;100.00
7670;BME280;3877;42.562;27.636;2023-08-24T06:25:47;101547.00;;;32.31;100.00
7670;BME280;3877;42.562;27.636;2023-08-24T06:28:14;101542.97;;;32.41;100.00
7670;BME280;3877;42.562;27.636;2023-08-24T06:30:42;101556.97;;;32.30;100.00
7670;BME280;3877;42.562;27.636;2023-08-24T06:33:10;101558.03;;;32.20;100.00
7670;BME280;3877;42.562;27.636;2023-08-24T06:35:40;101559.75;;;32.18;100.00
7670;BME280;3877;42.562;27.636;2023-08-24T06:38:07;101554.38;;;32.00;100.00
7670;BME280;3877;42.562;27.636;2023-08-24T06:40:35;101554.91;;;31.95;100.00
7670;BME280;3877;42.562;27.636;2023-08-24T06:43:02;101554.72;;;31.86;100.00
7670;BME280;3877;42.562;27.636;2023-08-24T06:45:29;101563.22;;;31.77;100.00
7670;BME280;3877;42.562;27.636;2023-08-24T06:47:57;101560.28;;;31.60;100.00
7670;BME280;3877;42.562;27.636;2023-08-24T06:50:24;101571.53;;;31.75;100.00
7670;BME280;3877;42.562;27.636;2023-08-24T06:52:53;101582.47;;;31.67;100.00
7670;BME280;3877;42.562;27.636;2023-08-24T06:55:20;101579.28;;;31.61;100.00
7670;BME280;3877;42.562;27.636;2023-08-24T06:57:48;101572.91;;;31.50;100.00
7670;BME280;3877;42.562;27.636;2023-08-24T07:00:17;101569.78;;;31.41;100.00
7670;BME280;3877;42.562;27.636;2023-08-24T07:02:46;101579.91;;;31.33;100.00
7670;BME280;3877;42.562;27.636;2023-08-24T07:05:13;101579.16;;;31.29;100.00
7670;BME280;3877;42.562;27.636;2023-08-24T07:07:43;101585.25;;;31.15;100.00
7670;BME280;3877;42.562;27.636;2023-08-24T07:10:16;101577.81;;;31.14;100.00
7670;BME280;3877;42.562;27.636;2023-08-24T07:12:43;101584.50;;;31.11;100.00
7670;BME280;3877;42.562;27.636;2023-08-24T07:15:11;101590.81;;;31.06;100.00
7670;BME280;3877;42.562;27.636;2023-08-24T07:17:39;101582.63;;;31.01;100.00
7670;BME280;3877;42.562;27.636;2023-08-24T07:20:07;101582.28;;;31.18;100.00
7670;BME280;3877;42.562;27.636;2023-08-24T07:22:34;101588.38;;;31.24;100.00
7670;BME280;3877;42.562;27.636;2023-08-24T07:25:02;101588.50;;;31.37;100.00
7670;BME280;3877;42.562;27.636;2023-08-24T07:27:32;101574.28;;;31.26;100.00
7670;BME280;3877;42.562;27.636;2023-08-24T07:30:00;101584.13;;;31.28;100.00
7670;BME280;3877;42.562;27.636;2023-08-24T07:32:29;101587.31;;;31.34;100.00
7670;BME280;3877;42.562;27.636;2023-08-24T07:34:56;101589.09;;;31.28;100.00
7670;BME280;3877;42.562;27.636;2023-08-24T07:37:25;101592.91;;;31.45;100.00
7670;BME280;3877;42.562;27.636;2023-08-24T07:39:52;101592.91;;;31.45;100.00
7670;BME280;3877;42.562;27.636;2023-08-24T07:42:20;101588.44;;;31.20;100.00
7670;BME280;3877;42.562;27.636;2023-08-24T07:44:50;101585.91;;;30.79;100.00
7670;BME280;3877;42.562;27.636;2023-08-24T07:47:17;101577.25;;;30.56;100.00
7670;BME280;3877;42.562;27.636;2023-08-24T07:49:44;101577.63;;;30.35;100.00
7670;BME280;3877;42.562;27.636;2023-08-24T07:52:12;101583.41;;;30.35;100.00
7670;BME280;3877;42.562;27.636;2023-08-24T07:54:39;101567.53;;;30.47;100.00
7670;BME280;3877;42.562;27.636;2023-08-24T07:57:07;101579.78;;;30.54;100.00
7670;BME280;3877;42.562;27.636;2023-08-24T07:59:34;101583.03;;;30.56;100.00
7670;BME280;3877;42.562;27.636;2023-08-24T08:02:03;101581.59;;;30.45;100.00
7670;BME280;3877;42.562;27.636;2023-08-24T08:04:30;101587.69;;;30.27;100.00
7670;BME280;3877;42.562;27.636;2023-08-24T08:06:58;101573.41;;;30.39;100.00
7670;BME280;3877;42.562;27.636;2023-08-24T08:09:25;101569.44;;;30.30;100.00
7670;BME280;3877;42.562;27.636;2023-08-24T08:11:53;101574.16;;;30.43;100.00
7670;BME280;3877;42.562;27.636;2023-08-24T08:14:20;101574.09;;;30.70;100.00
7670;BME280;3877;42.562;27.636;2023-08-24T08:16:48;101568.38;;;30.43;100.00
7670;BME280;3877;42.562;27.636;2023-08-24T08:19:16;101569.78;;;30.59;100.00
7670;BME280;3877;42.562;27.636;2023-08-24T08:21:45;101574.59;;;30.65;100.00
7670;BME280;3877;42.562;27.636;2023-08-24T08:24:12;101572.44;;;30.50;100.00
7670;BME280;3877;42.562;27.636;2023-08-24T08:26:39;101571.47;;;30.56;100.00
7670;BME280;3877;42.562;27.636;2023-08-24T08:29:07;101569.78;;;30.59;100.00
7670;BME280;3877;42.562;27.636;2023-08-24T08:31:34;101572.53;;;30.42;100.00
7670;BME280;3877;42.562;27.636;2023-08-24T08:34:02;101572.38;;;30.53;100.00
7670;BME280;3877;42.562;27.636;2023-08-24T08:36:31;101573.97;;;30.31;100.00
7670;BME280;3877;42.562;27.636;2023-08-24T08:38:59;101566.81;;;30.16;100.00
7670;BME280;3877;42.562;27.636;2023-08-24T08:41:30;101568.81;;;30.19;100.00
7670;BME280;3877;42.562;27.636;2023-08-24T08:43:57;101543.28;;;30.14;100.00
7670;BME280;3877;42.562;27.636;2023-08-24T08:46:27;101558.13;;;30.16;100.00
7670;BME280;3877;42.562;27.636;2023-08-24T08:48:55;101565.72;;;30.06;100.00
7670;BME280;3877;42.562;27.636;2023-08-24T08:51:23;101565.72;;;30.06;100.00
7670;BME280;3877;42.562;27.636;2023-08-24T08:53:52;101564.59;;;30.23;100.00
7670;BME280;3877;42.562;27.636;2023-08-24T08:56:19;101566.00;;;30.38;100.00
7670;BME280;3877;42.562;27.636;2023-08-24T08:58:47;101566.66;;;30.50;100.00
7670;BME280;3877;42.562;27.636;2023-08-24T09:01:15;101563.03;;;30.65;100.00
7670;BME280;3877;42.562;27.636;2023-08-24T09:03:44;101567.69;;;30.82;100.00
7670;BME280;3877;42.562;27.636;2023-08-24T09:06:12;101574.34;;;30.79;100.00
7670;BME280;3877;42.562;27.636;2023-08-24T09:08:39;101576.75;;;30.61;100.00
7670;BME280;3877;42.562;27.636;2023-08-24T09:11:08;101577.47;;;30.42;100.00
7670;BME280;3877;42.562;27.636;2023-08-24T09:13:36;101571.94;;;30.28;100.00
7670;BME280;3877;42.562;27.636;2023-08-24T09:16:03;101569.56;;;30.23;100.00
7670;BME280;3877;42.562;27.636;2023-08-24T09:18:36;101574.31;;;30.10;100.00
7670;BME280;3877;42.562;27.636;2023-08-24T09:21:08;101575.09;;;30.14;100.00
7670;BME280;3877;42.562;27.636;2023-08-24T09:23:37;101578.38;;;30.16;100.00
7670;BME280;3877;42.562;27.636;2023-08-24T09:26:04;101579.03;;;30.50;100.00
7670;BME280;3877;42.562;27.636;2023-08-24T09:28:33;101577.94;;;30.40;100.00
7670;BME280;3877;42.562;27.636;2023-08-24T09:31:02;101478.53;;;29.84;100.00
7670;BME280;3877;42.562;27.636;2023-08-24T09:33:29;101573.66;;;30.25;100.00
7670;BME280;3877;42.562;27.636;2023-08-24T09:35:57;101566.53;;;30.07;100.00
7670;BME280;3877;42.562;27.636;2023-08-24T09:38:27;101554.34;;;29.95;100.00
7670;BME280;3877;42.562;27.636;2023-08-24T09:40:56;101567.63;;;30.16;100.00
7670;BME280;3877;42.562;27.636;2023-08-24T09:43:24;101565.06;;;30.22;100.00
7670;BME280;3877;42.562;27.636;2023-08-24T09:45:55;101570.84;;;30.45;100.00
7670;BME280;3877;42.562;27.636;2023-08-24T09:48:24;101564.81;;;30.36;100.00
7670;BME280;3877;42.562;27.636;2023-08-24T09:50:52;101570.19;;;30.34;100.00
7670;BME280;3877;42.562;27.636;2023-08-24T09:53:20;101561.56;;;30.57;100.00
7670;BME280;3877;42.562;27.636;2023-08-24T09:55:53;101572.03;;;30.71;100.00
7670;BME280;3877;42.562;27.636;2023-08-24T09:58:21;101557.41;;;31.01;100.00
7670;BME280;3877;42.562;27.636;2023-08-24T10:00:49;101550.78;;;31.01;100.00
7670;BME280;3877;42.562;27.636;2023-08-24T10:03:20;101536.22;;;30.84;100.00
7670;BME280;3877;42.562;27.636;2023-08-24T10:05:50;101546.63;;;30.82;100.00
7670;BME280;3877;42.562;27.636;2023-08-24T10:08:24;101544.13;;;31.04;100.00
7670;BME280;3877;42.562;27.636;2023-08-24T10:10:55;101543.06;;;31.34;100.00
7670;BME280;3877;42.562;27.636;2023-08-24T10:13:31;101535.84;;;31.42;100.00
7670;BME280;3877;42.562;27.636;2023-08-24T10:16:04;101542.03;;;31.63;100.00
7670;BME280;3877;42.562;27.636;2023-08-24T10:18:33;101534.44;;;31.69;100.00
7670;BME280;3877;42.562;27.636;2023-08-24T10:21:01;101530.25;;;31.70;100.00
7670;BME280;3877;42.562;27.636;2023-08-24T10:23:29;101516.34;;;31.82;100.00
7670;BME280;3877;42.562;27.636;2023-08-24T10:25:57;101529.09;;;31.84;100.00
7670;BME280;3877;42.562;27.636;2023-08-24T10:28:27;101531.75;;;31.79;100.00
7670;BME280;3877;42.562;27.636;2023-08-24T10:30:59;101529.09;;;31.68;100.00
7670;BME280;3877;42.562;27.636;2023-08-24T10:33:28;101520.03;;;31.46;100.00
7670;BME280;3877;42.562;27.636;2023-08-24T10:35:58;101519.72;;;31.60;100.00
7670;BME280;3877;42.562;27.636;2023-08-24T10:38:26;101503.91;;;31.65;100.00
7670;BME280;3877;42.562;27.636;2023-08-24T10:40:54;101514.63;;;31.48;100.00
7670;BME280;3877;42.562;27.636;2023-08-24T10:43:22;101511.19;;;31.53;100.00
7670;BME280;3877;42.562;27.636;2023-08-24T10:45:57;101504.16;;;31.54;100.00
7670;BME280;3877;42.562;27.636;2023-08-24T10:48:25;101506.84;;;31.45;100.00
7670;BME280;3877;42.562;27.636;2023-08-24T10:51:19;101507.34;;;31.60;100.00
7670;BME280;3877;42.562;27.636;2023-08-24T10:53:52;101505.56;;;31.46;100.00
7670;BME280;3877;42.562;27.636;2023-08-24T10:56:20;101496.31;;;31.35;100.00
7670;BME280;3877;42.562;27.636;2023-08-24T10:59:11;101504.94;;;31.19;100.00
7670;BME280;3877;42.562;27.636;2023-08-24T11:01:39;101501.69;;;31.17;100.00
7670;BME280;3877;42.562;27.636;2023-08-24T11:04:07;101492.25;;;31.13;100.00
7670;BME280;3877;42.562;27.636;2023-08-24T11:06:51;101500.47;;;31.34;100.00
7670;BME280;3877;42.562;27.636;2023-08-24T11:09:19;101497.25;;;31.48;100.00
7670;BME280;3877;42.562;27.636;2023-08-24T11:11:58;101488.88;;;31.34;100.00
7670;BME280;3877;42.562;27.636;2023-08-24T11:14:26;101493.13;;;31.30;100.00
7670;BME280;3877;42.562;27.636;2023-08-24T11:16:58;101480.91;;;31.22;100.00
7670;BME280;3877;42.562;27.636;2023-08-24T11:19:25;101489.31;;;31.16;100.00
7670;BME280;3877;42.562;27.636;2023-08-24T11:21:54;101484.06;;;31.27;100.00
7670;BME280;3877;42.562;27.636;2023-08-24T11:24:22;101485.22;;;31.14;100.00
7670;BME280;3877;42.562;27.636;2023-08-24T11:26:50;101481.97;;;31.12;100.00
7670;BME280;3877;42.562;27.636;2023-08-24T11:29:18;101489.16;;;30.84;100.00
7670;BME280;3877;42.562;27.636;2023-08-24T11:31:45;101477.31;;;30.95;100.00
7670;BME280;3877;42.562;27.636;2023-08-24T11:34:15;101461.50;;;31.03;100.00
7670;BME280;3877;42.562;27.636;2023-08-24T11:36:45;101478.38;;;30.84;100.00
7670;BME280;3877;42.562;27.636;2023-08-24T11:39:18;101472.09;;;31.09;100.00
7670;BME280;3877;42.562;27.636;2023-08-24T11:41:57;101459.03;;;31.37;100.00
7670;BME280;3877;42.562;27.636;2023-08-24T11:44:25;101458.16;;;31.40;100.00
7670;BME280;3877;42.562;27.636;2023-08-24T11:46:52;101469.88;;;31.33;100.00
7670;BME280;3877;42.562;27.636;2023-08-24T11:49:20;101453.22;;;31.21;100.00
7670;BME280;3877;42.562;27.636;2023-08-24T11:51:48;101471.13;;;31.32;100.00
7670;BME280;3877;42.562;27.636;2023-08-24T11:54:18;101465.88;;;31.27;100.00
7670;BME280;3877;42.562;27.636;2023-08-24T11:56:46;101466.38;;;31.06;100.00
7670;BME280;3877;42.562;27.636;2023-08-24T11:59:14;101466.13;;;30.97;100.00
7670;BME280;3877;42.562;27.636;2023-08-24T12:01:43;101462.00;;;30.78;100.00
7670;BME280;3877;42.562;27.636;2023-08-24T12:04:12;101474.91;;;30.73;100.00
7670;BME280;3877;42.562;27.636;2023-08-24T12:06:39;101471.09;;;30.76;100.00
7670;BME280;3877;42.562;27.636;2023-08-24T12:09:07;101469.47;;;30.95;100.00
7670;BME280;3877;42.562;27.636;2023-08-24T12:11:37;101463.25;;;30.97;100.00
7670;BME280;3877;42.562;27.636;2023-08-24T12:14:04;101462.34;;;31.00;100.00
7670;BME280;3877;42.562;27.636;2023-08-24T12:16:35;101434.53;;;30.86;100.00
7670;BME280;3877;42.562;27.636;2023-08-24T12:19:03;101438.34;;;31.03;100.00
7670;BME280;3877;42.562;27.636;2023-08-24T12:21:34;101446.38;;;31.31;100.00
7670;BME280;3877;42.562;27.636;2023-08-24T12:24:02;101453.41;;;31.30;100.00
7670;BME280;3877;42.562;27.636;2023-08-24T12:26:32;101435.47;;;31.19;100.00
7670;BME280;3877;42.562;27.636;2023-08-24T12:29:03;101431.41;;;31.16;100.00
7670;BME280;3877;42.562;27.636;2023-08-24T12:31:31;101437.81;;;31.08;100.00
7670;BME280;3877;42.562;27.636;2023-08-24T12:34:00;101425.69;;;31.13;100.00
7670;BME280;3877;42.562;27.636;2023-08-24T12:36:28;101433.41;;;31.19;100.00
7670;BME280;3877;42.562;27.636;2023-08-24T12:38:55;101437.69;;;31.31;100.00
7670;BME280;3877;42.562;27.636;2023-08-24T12:41:23;101439.19;;;31.00;100.00
7670;BME280;3877;42.562;27.636;2023-08-24T12:43:50;101423.47;;;31.01;100.00
7670;BME280;3877;42.562;27.636;2023-08-24T12:46:19;101419.91;;;31.13;100.00
7670;BME280;3877;42.562;27.636;2023-08-24T12:48:46;101406.97;;;31.01;100.00
7670;BME280;3877;42.562;27.636;2023-08-24T12:51:14;101409.25;;;30.70;100.00
7670;BME280;3877;42.562;27.636;2023-08-24T12:53:42;101395.19;;;31.08;100.00
7670;BME280;3877;42.562;27.636;2023-08-24T12:56:09;101404.91;;;31.18;100.00
7670;BME280;3877;42.562;27.636;2023-08-24T12:58:37;101401.41;;;31.26;100.00
7670;BME280;3877;42.562;27.636;2023-08-24T13:01:04;101395.66;;;31.07;100.00